Time;durP1;ratioP1;P1;durP2;ratioP2;P2;SDS_P1;SDS_P2;PMS_P1;PMS_P2;Temp;Humidity;BMP_temperature;BMP_pressure;BME280_temperature;BME280_humidity;BME280_pressure;Samples;Min_cycle;Max_cycle;Signal;HPM_P1;HPM_P2
2023/04/09 00:10:09;;;;;;;33.67;22.90;;;11.90;99.90;;;;;;6218133;23;20028;-89
2023/04/09 00:20:17;;;;;;;35.37;23.33;;;11.90;99.90;;;;;;6216480;23;20012;-88
2023/04/09 00:22:42;;;;;;;35.22;23.00;;;11.80;99.90;;;;;;6166734;23;20333;-89
2023/04/09 00:25:08;;;;;;;31.17;21.52;;;11.80;99.90;;;;;;6167188;23;20012;-89
2023/04/09 00:27:34;;;;;;;31.52;21.90;;;11.80;99.90;;;;;;6166121;23;20032;-86
2023/04/09 00:30:00;;;;;;;32.22;21.65;;;11.80;99.90;;;;;;6217458;23;20000;-88
2023/04/09 00:32:25;;;;;;;34.03;23.55;;;11.80;99.90;;;;;;6191012;23;20012;-87
2023/04/09 00:34:51;;;;;;;35.22;23.05;;;11.80;99.90;;;;;;6166934;23;20036;-88
2023/04/09 00:37:17;;;;;;;33.45;22.63;;;11.80;99.90;;;;;;6167029;23;20438;-88
2023/04/09 00:39:42;;;;;;;35.40;22.33;;;11.80;99.90;;;;;;6169364;23;20505;-90
2023/04/09 00:45:46;;;;;;;41.03;22.48;;;11.80;99.90;;;;;;6221160;23;20011;-88
2023/04/09 00:51:35;;;;;;;33.28;23.50;;;11.80;99.90;;;;;;6220703;23;20015;-88
2023/04/09 00:54:01;;;;;;;34.45;22.50;;;11.80;99.90;;;;;;6194609;23;20000;-88
2023/04/09 00:56:28;;;;;;;36.08;24.42;;;11.70;99.90;;;;;;6219583;23;20028;-88
2023/04/09 00:59:14;;;;;;;35.83;23.25;;;11.70;99.90;;;;;;6169201;23;20015;-88
2023/04/09 01:12:21;;;;;;;35.72;23.80;;;11.70;99.90;;;;;;6231187;23;20007;-89
2023/04/09 01:22:27;;;;;;;37.05;24.30;;;11.70;99.90;;;;;;6238693;23;20019;-88
2023/04/09 01:28:46;;;;;;;31.58;20.92;;;11.60;99.90;;;;;;6239401;23;20015;-88
2023/04/09 01:31:16;;;;;;;33.42;22.55;;;11.60;99.90;;;;;;6208807;23;20027;-87
2023/04/09 02:20:36;;;;;;;29.45;20.95;;;11.30;99.90;;;;;;6157479;23;20020;-88
2023/04/09 02:27:11;;;;;;;31.48;21.27;;;11.30;99.90;;;;;;6156827;23;20099;-88
2023/04/09 02:29:40;;;;;;;31.27;21.05;;;11.30;99.90;;;;;;6156466;23;19998;-88
2023/04/09 02:32:07;;;;;;;30.77;21.48;;;11.30;99.90;;;;;;6132028;23;20005;-88
2023/04/09 02:34:36;;;;;;;31.40;20.83;;;11.30;99.90;;;;;;6119543;23;20008;-88
2023/04/09 02:37:21;;;;;;;28.88;20.90;;;11.30;99.90;;;;;;6167182;23;20488;-87
2023/04/09 02:39:47;;;;;;;28.33;20.08;;;11.30;99.90;;;;;;6192475;23;20099;-88
2023/04/09 02:45:35;;;;;;;28.75;20.45;;;11.40;99.90;;;;;;6218000;23;20578;-88
2023/04/09 02:55:26;;;;;;;35.35;22.50;;;11.40;99.90;;;;;;6218983;23;20358;-88
2023/04/09 03:04:41;;;;;;;32.22;22.42;;;11.30;99.90;;;;;;6218838;23;20011;-88
2023/04/09 03:23:04;;;;;;;;;;;11.30;99.90;;;;;;6159198;23;20013;-88
2023/04/09 03:30:34;;;;;;;31.17;21.58;;;11.20;99.90;;;;;;6158228;23;20013;-88
2023/04/09 03:33:00;;;;;;;37.13;22.70;;;11.10;99.90;;;;;;6158710;23;20014;-88
2023/04/09 03:35:26;;;;;;;36.15;24.45;;;11.10;99.90;;;;;;6133295;23;20084;-87
2023/04/09 03:37:51;;;;;;;35.20;24.08;;;11.10;99.90;;;;;;6133645;23;20085;-88
2023/04/09 03:40:17;;;;;;;35.03;24.33;;;11.10;99.90;;;;;;6133766;23;20017;-88
2023/04/09 03:42:43;;;;;;;35.75;25.45;;;11.10;99.90;;;;;;6158749;23;20286;-88
2023/04/09 03:45:15;;;;;;;33.53;23.52;;;11.10;99.90;;;;;;6159293;23;20332;-88
2023/04/09 03:51:52;;;;;;;34.55;22.83;;;11.10;99.90;;;;;;6165034;23;20032;-88
2023/04/09 03:58:03;;;;;;;30.42;20.92;;;11.10;99.90;;;;;;6159888;23;20084;-87
2023/04/09 04:00:29;;;;;;;34.60;22.85;;;11.10;99.90;;;;;;6135848;23;20014;-88
2023/04/09 04:02:56;;;;;;;31.00;22.30;;;11.10;99.90;;;;;;6138462;23;20001;-87
2023/04/09 04:09:04;;;;;;;31.17;21.98;;;11.10;99.90;;;;;;6178221;23;20016;-88
2023/04/09 04:14:52;;;;;;;30.98;21.65;;;11.00;99.90;;;;;;6164321;23;20029;-87
2023/04/09 04:21:35;;;;;;;34.22;21.88;;;11.10;99.90;;;;;;6209091;23;20426;-87
2023/04/09 04:28:19;;;;;;;31.98;21.42;;;11.00;99.90;;;;;;6222344;23;20086;-87
2023/04/09 04:34:53;;;;;;;29.10;20.77;;;10.90;99.90;;;;;;6221126;23;20022;-87
2023/04/09 04:41:26;;;;;;;31.20;20.92;;;10.80;99.90;;;;;;6221197;23;20007;-87
2023/04/09 04:47:15;;;;;;;33.75;22.35;;;10.70;99.90;;;;;;6221099;23;20074;-87
2023/04/09 04:49:40;;;;;;;33.45;21.15;;;10.70;99.90;;;;;;6171437;23;20486;-87
2023/04/09 04:52:06;;;;;;;31.90;20.92;;;10.70;99.90;;;;;;6210358;23;19985;-87
2023/04/09 04:54:33;;;;;;;33.45;22.75;;;10.70;99.90;;;;;;6192046;23;20390;-86
2023/04/09 04:56:59;;;;;;;30.88;21.55;;;10.60;99.90;;;;;;6219329;22;19992;-87
2023/04/09 04:59:25;;;;;;;33.03;21.45;;;10.60;99.90;;;;;;6194503;23;19991;-87
2023/04/09 05:01:54;;;;;;;32.20;21.20;;;10.60;99.90;;;;;;6179670;23;20009;-87
2023/04/09 05:04:20;;;;;;;28.95;19.90;;;10.50;99.90;;;;;;6179000;23;20016;-88
2023/04/09 05:06:45;;;;;;;32.30;20.35;;;10.50;99.90;;;;;;6190303;23;20056;-87
2023/04/09 06:51:48;;;;;;;33.38;21.30;;;9.80;99.90;;;;;;6219178;23;20143;-87
2023/04/09 07:01:22;;;;;;;33.53;21.20;;;9.80;99.90;;;;;;6216954;23;20001;-88
2023/04/09 07:18:09;;;;;;;36.75;23.10;;;9.90;99.90;;;;;;6220022;23;20023;-88
2023/04/09 07:28:20;;;;;;;30.52;20.40;;;10.10;99.90;;;;;;6220487;22;20009;-87
2023/04/09 07:34:15;;;;;;;35.25;21.25;;;10.30;99.90;;;;;;6236708;23;20011;-88
2023/04/09 07:40:08;;;;;;;32.10;21.38;;;10.30;99.90;;;;;;6223426;23;20019;-88
2023/04/09 07:52:40;;;;;;;30.05;20.23;;;10.60;99.90;;;;;;6217659;23;20477;-87
2023/04/09 07:55:06;;;;;;;30.48;20.75;;;10.70;99.90;;;;;;6167261;23;20075;-86
2023/04/09 08:00:58;;;;;;;30.85;20.10;;;10.90;99.90;;;;;;6218747;23;20012;-87
2023/04/09 08:03:24;;;;;;;29.70;20.30;;;11.00;99.90;;;;;;6191463;23;20091;-87
2023/04/09 08:05:49;;;;;;;30.55;20.70;;;11.10;99.90;;;;;;6225944;23;20016;-86
2023/04/09 08:08:15;;;;;;;31.50;20.70;;;11.10;99.90;;;;;;6196611;23;20016;-86
2023/04/09 08:10:41;;;;;;;29.02;20.83;;;11.20;99.90;;;;;;6192823;23;20032;-85
2023/04/09 08:13:07;;;;;;;30.13;20.30;;;11.30;99.90;;;;;;6192465;23;20004;-85
2023/04/09 08:15:32;;;;;;;30.77;19.92;;;11.40;99.90;;;;;;6168068;23;20016;-87
2023/04/09 08:18:34;;;;;;;30.33;20.77;;;11.40;99.90;;;;;;6192105;23;20093;-88
2023/04/09 08:21:03;;;;;;;31.67;21.45;;;11.50;99.90;;;;;;6193322;23;20008;-87
2023/04/09 08:23:29;;;;;;;27.63;19.13;;;11.60;99.90;;;;;;6191908;23;20062;-87
2023/04/09 08:25:56;;;;;;;26.25;18.40;;;11.60;99.90;;;;;;6167472;23;20092;-87
2023/04/09 08:28:22;;;;;;;28.90;19.80;;;11.70;99.90;;;;;;6166428;23;20051;-86
2023/04/09 08:30:48;;;;;;;27.85;19.13;;;11.80;99.90;;;;;;6168413;23;20059;-86
2023/04/09 08:36:40;;;;;;;27.88;19.30;;;12.00;99.90;;;;;;6236801;23;20023;-85
2023/04/09 08:39:06;;;;;;;28.42;19.35;;;12.10;99.90;;;;;;6209555;23;20000;-83
2023/04/09 08:41:32;;;;;;;30.95;19.80;;;12.10;99.90;;;;;;6238668;23;20020;-83
2023/04/09 08:43:57;;;;;;;26.70;18.25;;;12.20;99.90;;;;;;6187366;23;20064;-85
2023/04/09 08:46:24;;;;;;;27.88;17.60;;;12.20;99.90;;;;;;6213781;23;20008;-85
2023/04/09 08:48:51;;;;;;;25.30;17.77;;;12.20;99.90;;;;;;6207564;23;20008;-84
2023/04/09 08:51:22;;;;;;;24.60;16.55;;;12.30;99.90;;;;;;6191949;23;20011;-85
2023/04/09 08:54:03;;;;;;;25.33;18.20;;;12.40;99.90;;;;;;6217391;23;20362;-86
2023/04/09 08:56:30;;;;;;;24.83;17.38;;;12.40;99.90;;;;;;6216633;23;20012;-87
2023/04/09 08:58:55;;;;;;;24.52;17.08;;;12.50;99.90;;;;;;6193906;23;20322;-87
2023/04/09 09:01:31;;;;;;;23.73;17.17;;;12.60;99.90;;;;;;6192826;23;20020;-86
2023/04/09 09:04:04;;;;;;;23.92;17.00;;;12.80;99.90;;;;;;6192463;23;20375;-86
2023/04/09 09:06:34;;;;;;;25.75;17.63;;;12.80;99.90;;;;;;6168054;23;20005;-86
2023/04/09 09:09:14;;;;;;;24.55;17.50;;;12.90;99.90;;;;;;6176065;23;20011;-86
2023/04/09 09:11:49;;;;;;;23.48;17.20;;;13.00;99.90;;;;;;6177056;23;20009;-86
2023/04/09 09:14:17;;;;;;;24.45;17.25;;;13.00;99.90;;;;;;6193234;23;20000;-89
2023/04/09 09:16:56;;;;;;;25.08;17.48;;;13.10;99.90;;;;;;6192886;23;20009;-87
2023/04/09 09:19:24;;;;;;;24.77;17.67;;;13.20;99.90;;;;;;6192527;23;20000;-90
2023/04/09 09:22:03;;;;;;;23.45;15.80;;;13.30;99.90;;;;;;6193105;23;20004;-85
2023/04/09 09:24:31;;;;;;;23.65;17.23;;;13.40;99.90;;;;;;6193791;23;19996;-87
2023/04/09 09:26:57;;;;;;;24.55;15.98;;;13.40;99.90;;;;;;6194487;23;20004;-87
2023/04/09 09:29:24;;;;;;;23.33;17.08;;;13.50;99.90;;;;;;6219767;23;20009;-87
2023/04/09 09:31:51;;;;;;;23.75;16.42;;;13.50;99.90;;;;;;6193249;23;20001;-88
2023/04/09 09:34:21;;;;;;;25.02;17.58;;;13.60;99.90;;;;;;6169762;23;20009;-90
2023/04/09 09:37:24;;;;;;;24.75;17.85;;;13.60;99.90;;;;;;6194395;23;20095;-87
2023/04/09 09:39:50;;;;;;;23.15;16.73;;;13.60;99.90;;;;;;6220312;23;20000;-87
2023/04/09 09:42:15;;;;;;;24.33;17.38;;;13.70;99.90;;;;;;6220990;23;20481;-87
2023/04/09 09:44:41;;;;;;;22.17;16.05;;;13.70;99.90;;;;;;6169873;23;20096;-88
2023/04/09 09:47:08;;;;;;;24.95;17.02;;;13.90;99.90;;;;;;6162239;23;20079;-87
2023/04/09 09:49:33;;;;;;;23.30;16.40;;;14.00;99.90;;;;;;6138375;23;20006;-87
2023/04/09 09:52:02;;;;;;;22.52;16.33;;;14.00;99.90;;;;;;6163690;23;20424;-88
2023/04/09 09:54:33;;;;;;;23.23;14.93;;;14.10;99.90;;;;;;6190366;23;20124;-88
2023/04/09 09:57:03;;;;;;;;;;;14.20;99.90;;;;;;6165432;23;20020;-87
2023/04/09 10:03:29;;;;;;;23.20;15.63;;;14.30;99.90;;;;;;6190999;23;20004;-87
2023/04/09 10:06:03;;;;;;;22.08;15.85;;;14.50;99.90;;;;;;6162579;23;20008;-88
2023/04/09 10:11:55;;;;;;;19.88;14.65;;;14.60;99.90;;;;;;6189202;23;20490;-87
2023/04/09 10:14:22;;;;;;;19.08;14.25;;;14.70;99.90;;;;;;6171431;23;20028;-86
2023/04/09 10:16:48;;;;;;;20.05;14.73;;;14.70;99.90;;;;;;6143891;23;20096;-87
2023/04/09 10:19:15;;;;;;;20.38;14.13;;;14.80;99.90;;;;;;6164003;23;20005;-87
2023/04/09 10:21:52;;;;;;;18.27;12.80;;;14.80;99.90;;;;;;6163838;23;20059;-89
2023/04/09 10:24:18;;;;;;;17.17;13.38;;;14.90;99.90;;;;;;6163472;23;20036;-87
2023/04/09 10:26:44;;;;;;;20.33;13.30;;;15.10;99.90;;;;;;6140077;23;20372;-89
2023/04/09 10:29:25;;;;;;;17.35;12.13;;;15.10;99.90;;;;;;6164300;23;20001;-89
2023/04/09 10:31:53;;;;;;;19.17;13.38;;;15.20;99.70;;;;;;6165351;23;19997;-89
2023/04/09 10:34:25;;;;;;;21.25;14.75;;;15.20;99.00;;;;;;6163582;23;20036;-86
2023/04/09 10:36:56;;;;;;;19.73;13.77;;;15.30;98.90;;;;;;6162115;23;20009;-86
2023/04/09 10:39:30;;;;;;;17.98;13.18;;;15.30;99.10;;;;;;6162579;23;20005;-86
2023/04/09 10:41:58;;;;;;;19.08;12.88;;;15.40;99.30;;;;;;6162599;23;20360;-86
2023/04/09 10:44:26;;;;;;;19.55;13.00;;;15.50;99.30;;;;;;6162514;23;20020;-86
2023/04/09 10:46:55;;;;;;;18.60;13.10;;;15.60;99.00;;;;;;6204981;23;20021;-86
2023/04/09 10:49:23;;;;;;;18.92;13.57;;;15.70;99.20;;;;;;6192012;23;20052;-86
2023/04/09 10:52:05;;;;;;;16.52;12.52;;;15.70;96.90;;;;;;6192158;23;19997;-84
2023/04/09 10:54:32;;;;;;;15.48;10.50;;;15.80;98.00;;;;;;6192529;23;20028;-86
2023/04/09 10:57:07;;;;;;;12.95;9.15;;;15.80;97.20;;;;;;6191906;23;20012;-85
2023/04/09 10:59:49;;;;;;;12.48;9.30;;;16.00;97.00;;;;;;6191987;23;20005;-85
2023/04/09 11:02:36;;;;;;;12.15;8.73;;;16.10;97.00;;;;;;6172613;23;20437;-86
2023/04/09 11:05:27;;;;;;;11.10;7.55;;;16.20;95.70;;;;;;6224779;23;20439;-86
2023/04/09 11:08:08;;;;;;;11.02;7.15;;;16.30;95.40;;;;;;6212710;23;20015;-86
2023/04/09 11:10:35;;;;;;;11.13;7.40;;;16.40;94.50;;;;;;6205582;23;20008;-86
2023/04/09 11:13:02;;;;;;;9.27;6.43;;;16.40;91.90;;;;;;6172955;23;20050;-86
2023/04/09 11:15:28;;;;;;;10.77;7.25;;;16.40;92.10;;;;;;6205711;23;19996;-86
2023/04/09 11:17:56;;;;;;;11.13;6.97;;;16.50;92.20;;;;;;6206373;23;20015;-85
2023/04/09 11:23:56;;;;;;;8.25;6.50;;;16.60;90.60;;;;;;6219440;23;20003;-86
2023/04/09 11:26:35;;;;;;;9.27;6.78;;;16.70;90.10;;;;;;6169494;23;20461;-86
2023/04/09 11:29:11;;;;;;;9.40;6.80;;;16.70;88.90;;;;;;6168453;23;20001;-86
2023/04/09 11:38:25;;;;;;;8.70;5.85;;;17.00;85.30;;;;;;6219186;23;20012;-86
2023/04/09 11:40:56;;;;;;;8.15;5.93;;;17.00;86.40;;;;;;6167737;23;20012;-85
2023/04/09 11:43:23;;;;;;;;;;;17.10;86.70;;;;;;6209345;23;20056;-88
2023/04/09 11:45:49;;;;;;;9.52;7.32;;;17.20;83.40;;;;;;6198476;23;20294;-86
2023/04/09 13:00:45;;;;;;;14.13;10.63;;;18.30;75.60;;;;;;6189395;23;20009;-88
2023/04/09 13:03:11;;;;;;;14.07;9.73;;;18.40;77.90;;;;;;6141650;23;20013;-88
2023/04/09 13:05:37;;;;;;;12.75;9.57;;;18.40;72.00;;;;;;6167262;23;20005;-88
2023/04/09 13:08:06;;;;;;;13.38;10.38;;;18.20;71.80;;;;;;6165802;23;20016;-91
2023/04/09 13:10:34;;;;;;;11.93;9.43;;;18.10;74.60;;;;;;6166632;23;20344;-90
2023/04/09 13:13:15;;;;;;;11.57;8.23;;;18.10;75.90;;;;;;6116695;23;20486;-90
2023/04/09 13:19:03;;;;;;;12.60;9.73;;;18.40;76.50;;;;;;6190588;23;20077;-88
2023/04/09 13:28:15;;;;;;;11.75;9.15;;;18.80;76.20;;;;;;6164703;23;20068;-91
2023/04/09 13:30:44;;;;;;;12.85;9.75;;;18.90;76.80;;;;;;6163698;23;19997;-91
2023/04/09 13:51:59;;;;;;;9.77;7.28;;;19.20;74.10;;;;;;6203065;22;20020;-92
2023/04/09 13:54:25;;;;;;;9.77;7.43;;;19.30;71.80;;;;;;6165480;23;20096;-91
2023/04/09 13:56:51;;;;;;;9.25;6.97;;;19.30;70.70;;;;;;6140660;23;20013;-92
2023/04/09 15:01:07;;;;;;;9.68;6.80;;;18.90;65.70;;;;;;6221098;23;20040;-92
2023/04/09 15:07:44;;;;;;;9.95;6.60;;;18.70;66.50;;;;;;6221005;23;20027;-90
2023/04/09 15:24:45;;;;;;;9.55;6.55;;;18.50;68.70;;;;;;6221858;23;20331;-91
2023/04/09 15:38:02;;;;;;;8.18;5.82;;;18.40;65.10;;;;;;6221586;23;20435;-92
2023/04/09 15:43:56;;;;;;;8.27;5.93;;;18.30;63.80;;;;;;6229036;23;20028;-89
2023/04/09 15:49:57;;;;;;;7.75;5.88;;;18.30;65.50;;;;;;6228080;23;20027;-91
2023/04/09 15:56:08;;;;;;;8.27;5.75;;;18.20;64.20;;;;;;6218171;23;20505;-90
2023/04/09 15:58:54;;;;;;;7.38;5.47;;;18.20;65.80;;;;;;6192328;23;20021;-91
2023/04/09 16:01:31;;;;;;;6.82;5.45;;;18.10;64.70;;;;;;6071070;23;20018;-92
2023/04/09 16:04:17;;;;;;;7.55;5.60;;;18.10;65.80;;;;;;6073444;23;20011;-91
2023/04/09 16:23:32;;;;;;;8.65;6.40;;;17.80;65.60;;;;;;5934453;23;20009;-91
2023/04/09 16:29:29;;;;;;;;;;;17.70;63.90;;;;;;5932151;24;20108;-91
2023/04/09 16:35:18;;;;;;;7.75;5.45;;;17.60;65.00;;;;;;5931042;24;20011;-84
2023/04/09 16:37:45;;;;;;;7.90;5.50;;;17.60;65.70;;;;;;6009217;23;20127;-85
2023/04/09 16:40:10;;;;;;;8.30;6.38;;;17.60;66.70;;;;;;6195228;23;20000;-85
2023/04/09 16:42:37;;;;;;;8.48;5.70;;;17.60;66.70;;;;;;6194471;23;20004;-85
2023/04/09 16:45:05;;;;;;;7.47;5.35;;;17.70;66.20;;;;;;6169119;23;20005;-86
2023/04/09 16:47:31;;;;;;;9.02;5.85;;;17.60;65.00;;;;;;6169672;23;20013;-86
2023/04/09 16:49:57;;;;;;;9.32;5.90;;;17.60;66.40;;;;;;6195779;23;20000;-86
2023/04/09 16:52:23;;;;;;;9.25;6.10;;;17.60;66.20;;;;;;6184084;23;20005;-85
2023/04/09 16:54:49;;;;;;;8.70;6.43;;;17.60;65.90;;;;;;6183063;23;20005;-86
2023/04/09 16:57:15;;;;;;;7.80;5.78;;;17.60;66.40;;;;;;6165459;23;20162;-86
2023/04/09 16:59:41;;;;;;;8.23;6.55;;;17.60;65.80;;;;;;6167839;23;20100;-86
2023/04/09 17:02:08;;;;;;;7.68;5.93;;;17.60;64.90;;;;;;6166646;23;20100;-91
2023/04/09 17:04:36;;;;;;;8.52;6.40;;;17.50;66.10;;;;;;6167759;23;20008;-86
2023/04/09 17:07:02;;;;;;;9.10;6.10;;;17.50;66.60;;;;;;6192239;23;20071;-86
2023/04/09 17:09:29;;;;;;;7.82;5.90;;;17.50;67.10;;;;;;6167635;23;20004;-87
2023/04/09 17:11:56;;;;;;;7.63;5.93;;;17.40;65.60;;;;;;6167879;23;20005;-86
2023/04/09 17:14:22;;;;;;;6.75;5.40;;;17.30;66.60;;;;;;6192506;23;20001;-86
2023/04/09 17:16:48;;;;;;;8.05;5.97;;;17.30;66.50;;;;;;6192668;23;20312;-86
2023/04/09 17:19:14;;;;;;;8.35;6.05;;;17.30;67.20;;;;;;6167165;23;20009;-87
2023/04/09 17:21:40;;;;;;;8.63;5.43;;;17.30;67.00;;;;;;6166936;23;20040;-87
2023/04/09 17:24:06;;;;;;;7.85;5.88;;;17.30;68.00;;;;;;6191977;23;20005;-86
2023/04/09 17:26:32;;;;;;;8.77;6.10;;;17.30;67.80;;;;;;6217418;23;20514;-86
2023/04/09 17:28:58;;;;;;;7.57;5.65;;;17.30;67.90;;;;;;6164626;23;20035;-87
2023/04/09 17:31:25;;;;;;;8.52;6.03;;;17.30;68.10;;;;;;6164719;23;20000;-86
2023/04/09 17:33:51;;;;;;;8.55;6.22;;;17.30;67.70;;;;;;6216365;23;20078;-89
2023/04/09 17:36:18;;;;;;;7.65;5.72;;;17.30;67.60;;;;;;6189571;23;20423;-86
2023/04/09 17:38:44;;;;;;;7.60;5.90;;;17.30;68.30;;;;;;6191452;23;20032;-86
2023/04/09 17:41:10;;;;;;;8.70;6.53;;;17.30;67.90;;;;;;6191538;23;20005;-90
2023/04/09 17:43:36;;;;;;;8.30;6.30;;;17.30;68.20;;;;;;6167223;23;20019;-86
2023/04/09 17:46:02;;;;;;;10.55;8.00;;;17.20;68.10;;;;;;6191788;23;20009;-86
2023/04/09 17:48:28;;;;;;;9.25;7.13;;;17.20;68.60;;;;;;6191424;23;20440;-88
2023/04/09 17:50:53;;;;;;;10.10;7.38;;;17.20;68.70;;;;;;6166958;23;20365;-87
2023/04/09 17:53:20;;;;;;;7.70;6.00;;;17.20;69.70;;;;;;6166554;23;20000;-86
2023/04/09 17:55:47;;;;;;;8.52;6.55;;;17.20;70.00;;;;;;6191366;23;20009;-86
2023/04/09 17:58:13;;;;;;;8.73;6.80;;;17.10;69.60;;;;;;6191813;23;20029;-88
2023/04/09 18:00:39;;;;;;;9.63;6.80;;;17.00;69.20;;;;;;6168101;23;20011;-87
2023/04/09 18:03:34;;;;;;;9.55;7.40;;;17.00;70.00;;;;;;6169079;23;20035;-87
2023/04/09 18:09:24;;;;;;;10.45;7.63;;;17.00;70.70;;;;;;6223473;23;20003;-87
2023/04/09 18:12:29;;;;;;;10.88;7.97;;;16.90;70.80;;;;;;6200029;23;20083;-87
2023/04/09 18:14:55;;;;;;;10.60;7.85;;;16.90;71.40;;;;;;6210898;23;20001;-86
2023/04/09 18:17:21;;;;;;;11.30;8.00;;;16.90;71.80;;;;;;6205619;23;20074;-87
2023/04/09 18:19:47;;;;;;;10.00;7.78;;;16.80;71.90;;;;;;6198228;23;20005;-87
2023/04/09 18:22:14;;;;;;;12.40;8.38;;;16.70;72.40;;;;;;6207084;23;20008;-88
2023/04/09 18:28:02;;;;;;;11.07;8.73;;;16.70;73.00;;;;;;6219519;23;20056;-87
2023/04/09 18:34:14;;;;;;;15.30;11.10;;;16.60;71.90;;;;;;6219654;23;20003;-88
2023/04/09 18:40:27;;;;;;;14.20;10.40;;;16.40;73.40;;;;;;6219507;23;20088;-86
2023/04/09 18:53:17;;;;;;;14.85;9.60;;;16.20;74.50;;;;;;6223193;23;20083;-86
2023/04/09 18:59:05;;;;;;;20.75;12.77;;;16.10;75.50;;;;;;6189212;23;20032;-87
2023/04/09 19:01:30;;;;;;;20.25;12.23;;;16.00;75.40;;;;;;6139277;23;20024;-87
2023/04/09 19:18:37;;;;;;;13.75;10.10;;;15.70;77.50;;;;;;6196945;23;20013;-88
2023/04/09 19:21:07;;;;;;;16.17;10.18;;;15.70;77.60;;;;;;6168225;23;20009;-87
2023/04/09 19:23:39;;;;;;;15.90;10.73;;;15.60;77.60;;;;;;6169539;23;19997;-85
2023/04/09 19:26:05;;;;;;;13.50;9.73;;;15.60;77.90;;;;;;6151293;23;20008;-87
2023/04/09 19:28:31;;;;;;;13.95;10.40;;;15.60;78.00;;;;;;6178821;23;19997;-87
2023/04/09 19:31:13;;;;;;;13.90;9.80;;;15.60;78.80;;;;;;6138210;23;20016;-87
2023/04/09 19:47:37;;;;;;;19.50;13.10;;;15.30;79.40;;;;;;6189276;23;20005;-87
2023/04/09 19:56:46;;;;;;;17.17;13.43;;;15.20;79.80;;;;;;6191444;23;20016;-87
2023/04/09 19:59:12;;;;;;;19.42;13.63;;;15.10;79.80;;;;;;6167957;23;20330;-87
2023/04/09 20:01:37;;;;;;;20.45;13.43;;;15.00;79.90;;;;;;6192523;23;20004;-86
2023/04/09 20:04:04;;;;;;;20.88;15.23;;;15.00;80.10;;;;;;6167739;23;20028;-87
2023/04/09 20:06:29;;;;;;;22.50;15.55;;;14.90;80.40;;;;;;6167383;23;20095;-87
2023/04/09 20:09:16;;;;;;;20.48;15.10;;;14.90;80.70;;;;;;6167131;23;20004;-87
2023/04/09 20:15:06;;;;;;;20.00;15.00;;;14.80;80.70;;;;;;6219239;23;20008;-88
2023/04/09 20:17:31;;;;;;;21.50;15.60;;;14.80;81.20;;;;;;6167660;23;20020;-87
2023/04/09 20:19:57;;;;;;;23.40;16.75;;;14.70;81.90;;;;;;6193340;23;20005;-88
2023/04/09 20:22:23;;;;;;;22.88;16.35;;;14.70;80.80;;;;;;6169015;23;20019;-88
2023/04/09 20:24:49;;;;;;;20.92;15.57;;;14.60;80.00;;;;;;6168423;23;20012;-87
2023/04/09 20:27:14;;;;;;;23.27;17.05;;;14.60;80.60;;;;;;6167520;23;20013;-87
2023/04/09 20:29:40;;;;;;;25.45;17.33;;;14.60;80.80;;;;;;6168318;23;20104;-87
2023/04/09 20:32:06;;;;;;;22.42;16.63;;;14.50;81.00;;;;;;6192660;23;19997;-87
2023/04/09 20:38:19;;;;;;;24.52;17.70;;;14.50;81.80;;;;;;6219243;23;20012;-87
2023/04/09 20:45:05;;;;;;;24.00;17.73;;;14.40;81.90;;;;;;6217933;23;20469;-88
2023/04/09 20:48:10;;;;;;;22.50;17.40;;;14.30;81.90;;;;;;6192279;23;20292;-87
2023/04/09 20:50:36;;;;;;;25.80;18.88;;;14.30;81.70;;;;;;6218814;23;19992;-88
2023/04/09 20:53:01;;;;;;;25.63;18.23;;;14.20;81.60;;;;;;6167552;23;20134;-87
2023/04/09 20:55:42;;;;;;;27.65;19.05;;;14.10;81.30;;;;;;6193101;23;20131;-89
2023/04/09 20:58:08;;;;;;;27.83;19.48;;;14.10;82.00;;;;;;6178335;23;20031;-89
2023/04/09 21:00:33;;;;;;;27.40;18.40;;;14.10;82.30;;;;;;6175252;23;20075;-89
2023/04/09 21:03:00;;;;;;;26.67;19.92;;;14.10;82.70;;;;;;6194624;23;20004;-89
2023/04/09 21:12:20;;;;;;;27.73;19.55;;;14.00;83.50;;;;;;6220512;23;20083;-87
2023/04/09 21:46:41;;;;;;;27.35;20.10;;;13.50;84.60;;;;;;6236111;23;20318;-89
2023/04/09 22:15:34;;;;;;;26.10;17.98;;;13.10;86.90;;;;;;6245916;22;20110;-84
2023/04/09 22:17:59;;;;;;;24.13;18.05;;;13.10;87.20;;;;;;6170667;23;20020;-87
2023/04/09 22:20:25;;;;;;;28.02;19.88;;;13.10;87.10;;;;;;6172280;23;20115;-87
2023/04/09 22:22:55;;;;;;;24.35;18.42;;;13.00;87.10;;;;;;6170529;23;20004;-87
2023/04/09 22:25:21;;;;;;;23.80;18.80;;;13.00;87.60;;;;;;6170909;23;20005;-88
2023/04/09 22:27:53;;;;;;;24.92;18.30;;;13.00;87.80;;;;;;6170851;23;20270;-88
2023/04/09 22:31:08;;;;;;;28.92;18.50;;;12.90;88.20;;;;;;6195249;23;20009;-88
2023/04/09 22:37:17;;;;;;;23.25;16.70;;;12.90;88.30;;;;;;6222875;23;20023;-88
2023/04/09 23:14:10;;;;;;;16.42;12.20;;;12.40;88.70;;;;;;6221254;23;20031;-87
2023/04/09 23:16:36;;;;;;;17.70;12.02;;;12.40;88.50;;;;;;6186150;23;20442;-87
2023/04/09 23:19:02;;;;;;;17.73;12.65;;;12.30;88.90;;;;;;6164319;23;20103;-88
2023/04/09 23:24:57;;;;;;;20.83;12.85;;;12.20;89.40;;;;;;6223528;22;20001;-88
2023/04/09 23:27:27;;;;;;;18.95;13.32;;;12.20;89.30;;;;;;6171849;23;20427;-86
2023/04/09 23:29:54;;;;;;;16.92;12.70;;;12.20;89.40;;;;;;6173901;23;20005;-87
2023/04/09 23:32:57;;;;;;;20.23;13.07;;;12.10;89.30;;;;;;6173441;23;20005;-88
2023/04/09 23:39:00;;;;;;;16.45;12.43;;;12.10;89.40;;;;;;6223525;23;20329;-87
2023/04/09 23:45:24;;;;;;;19.17;12.65;;;12.00;90.20;;;;;;6222900;23;20027;-87
